createdAt,value
2019-04-14T00:01:06.719Z,9.67
2019-04-14T00:02:47.686Z,9.64
2019-04-14T00:04:29.265Z,9.53
2019-04-14T00:06:09.156Z,9.50
2019-04-14T00:07:49.454Z,9.46
2019-04-14T00:09:29.416Z,9.37
2019-04-14T00:11:08.735Z,9.21
2019-04-14T00:12:51.293Z,9.39
2019-04-14T00:14:33.549Z,9.36
2019-04-14T00:16:14.146Z,9.55
2019-04-14T00:17:54.393Z,9.54
2019-04-14T00:19:34.886Z,9.58
2019-04-14T00:21:13.388Z,9.42
2019-04-14T00:22:53.421Z,9.44
2019-04-14T00:24:33.555Z,9.44
2019-04-14T00:26:27.448Z,9.45
2019-04-14T00:28:07.355Z,9.22
2019-04-14T00:29:47.933Z,9.34
2019-04-14T00:31:30.598Z,9.29
2019-04-14T00:33:12.767Z,9.29
2019-04-14T00:34:59.413Z,9.30
2019-04-14T00:36:56.603Z,9.25
2019-04-14T00:38:39.067Z,9.26
2019-04-14T00:40:21.804Z,9.30
2019-04-14T00:42:25.616Z,9.32
2019-04-14T00:44:14.647Z,9.24
2019-04-14T00:46:00.564Z,9.24
2019-04-14T00:47:59.496Z,9.23
2019-04-14T00:49:31.258Z,9.19
2019-04-14T00:51:11.283Z,9.18
2019-04-14T00:52:50.199Z,9.21
2019-04-14T00:54:30.429Z,9.14
2019-04-14T00:56:10.490Z,9.07
2019-04-14T00:57:50.900Z,8.97
2019-04-14T00:59:31.202Z,8.99
2019-04-14T01:01:11.230Z,9.10
2019-04-14T01:02:51.534Z,9.09
2019-04-14T01:04:31.615Z,8.94
2019-04-14T01:06:12.138Z,9.11
2019-04-14T01:07:52.342Z,9.16
2019-04-14T01:09:32.693Z,9.14
2019-04-14T01:11:12.232Z,9.12
2019-04-14T01:12:51.769Z,9.22
2019-04-14T01:14:32.013Z,9.13
2019-04-14T01:16:17.016Z,9.07
2019-04-14T01:17:52.891Z,9.13
2019-04-14T01:19:32.994Z,9.18
2019-04-14T01:21:17.447Z,9.08
2019-04-14T01:22:57.467Z,9.07
2019-04-14T01:24:40.314Z,9.17
2019-04-14T01:26:20.395Z,9.03
2019-04-14T01:28:00.295Z,9.12
2019-04-14T01:29:40.516Z,8.99
2019-04-14T01:31:20.664Z,9.39
2019-04-14T01:33:01.108Z,9.22
2019-04-14T01:34:41.176Z,9.10
2019-04-14T01:36:21.251Z,9.09
2019-04-14T01:38:03.804Z,9.07
2019-04-14T01:39:44.147Z,9.10
2019-04-14T01:41:24.423Z,8.98
2019-04-14T01:43:03.863Z,8.96
2019-04-14T01:44:43.850Z,8.96
2019-04-14T01:46:30.952Z,8.99
2019-04-14T01:48:08.467Z,8.95
2019-04-14T01:49:48.684Z,9.24
2019-04-14T01:51:30.912Z,9.18
2019-04-14T01:53:31.914Z,9.09
2019-04-14T01:55:28.819Z,9.18
2019-04-14T01:57:24.550Z,8.99
2019-04-14T01:59:04.528Z,9.06
2019-04-14T02:00:44.792Z,9.10
2019-04-14T02:02:25.438Z,9.12
2019-04-14T02:04:04.985Z,8.96
2019-04-14T02:05:43.248Z,9.01
2019-04-14T02:07:23.354Z,8.88
2019-04-14T02:09:03.276Z,8.92
2019-04-14T02:10:43.735Z,8.83
2019-04-14T02:12:23.507Z,8.92
2019-04-14T02:14:02.082Z,9.09
2019-04-14T02:15:40.455Z,9.01
2019-04-14T02:17:20.300Z,8.89
2019-04-14T02:18:58.611Z,8.96
2019-04-14T02:20:38.279Z,8.97
2019-04-14T02:22:18.134Z,8.86
2019-04-14T02:23:56.317Z,8.99
2019-04-14T02:25:34.420Z,9.00
2019-04-14T02:27:14.859Z,8.80
2019-04-14T02:28:55.006Z,8.75
2019-04-14T02:30:48.460Z,8.71
2019-04-14T02:32:49.830Z,8.83
2019-04-14T02:34:34.546Z,8.81
2019-04-14T02:36:14.201Z,8.76
2019-04-14T02:37:57.103Z,8.79
2019-04-14T02:41:21.565Z,8.97
2019-04-14T02:42:59.210Z,9.04
2019-04-14T02:44:48.698Z,8.77
2019-04-14T02:46:26.419Z,8.63
2019-04-14T02:49:51.426Z,8.72
2019-04-14T02:53:10.975Z,8.90
2019-04-14T02:56:27.951Z,8.84
2019-04-14T02:58:10.245Z,8.61
2019-04-14T02:59:56.251Z,8.52
2019-04-14T03:01:54.830Z,8.39
2019-04-14T03:03:16.093Z,8.52
2019-04-14T03:05:18.628Z,8.47
2019-04-14T03:06:33.355Z,8.56
2019-04-14T03:08:18.777Z,8.44
2019-04-14T03:10:16.471Z,8.36
2019-04-14T03:11:40.274Z,8.44
2019-04-14T03:16:51.975Z,8.43
2019-04-14T03:20:47.585Z,8.63
2019-04-14T03:24:15.834Z,8.51
2019-04-14T03:25:59.408Z,8.51
2019-04-14T03:29:40.784Z,8.35
2019-04-14T03:33:18.505Z,8.45
2019-04-14T03:34:54.650Z,8.46
2019-04-14T03:36:58.300Z,8.42
2019-04-14T03:38:15.265Z,8.39
2019-04-14T03:39:46.615Z,8.35
2019-04-14T03:41:31.555Z,8.55
2019-04-14T03:43:09.924Z,8.56
2019-04-14T03:44:50.376Z,8.81
2019-04-14T03:49:54.334Z,8.60
2019-04-14T03:51:40.439Z,8.56
2019-04-14T03:53:26.835Z,8.51
2019-04-14T03:54:44.099Z,8.63
2019-04-14T03:56:14.382Z,8.50
2019-04-14T03:57:54.470Z,8.43
2019-04-14T03:59:34.596Z,8.52
2019-04-14T04:01:13.023Z,8.39
2019-04-14T04:02:53.304Z,8.57
2019-04-14T04:04:33.898Z,8.50
2019-04-14T04:06:13.672Z,8.48
2019-04-14T04:07:53.898Z,8.54
2019-04-14T04:09:45.355Z,8.64
2019-04-14T04:11:25.851Z,8.57
2019-04-14T04:13:04.393Z,8.68
2019-04-14T04:14:44.247Z,8.53
2019-04-14T04:16:26.902Z,8.55
2019-04-14T04:18:13.503Z,8.32
2019-04-14T04:19:55.617Z,8.41
2019-04-14T04:21:49.488Z,8.32
2019-04-14T04:23:51.130Z,8.51
2019-04-14T04:25:33.299Z,8.43
2019-04-14T04:27:29.283Z,8.34
2019-04-14T04:29:14.209Z,8.55
2019-04-14T04:30:53.753Z,8.64
2019-04-14T04:32:51.630Z,8.65
2019-04-14T04:34:49.085Z,8.52
2019-04-14T04:36:31.279Z,8.50
2019-04-14T04:38:18.202Z,8.39
2019-04-14T04:40:00.668Z,8.32
2019-04-14T04:41:40.752Z,8.42
2019-04-14T04:43:21.162Z,8.39
2019-04-14T04:45:01.683Z,8.46
2019-04-14T04:46:41.922Z,8.42
2019-04-14T04:48:24.178Z,8.52
2019-04-14T04:50:04.356Z,8.68
2019-04-14T04:51:42.826Z,8.86
2019-04-14T04:53:22.363Z,8.69
2019-04-14T04:55:00.920Z,8.61
2019-04-14T04:56:40.523Z,8.73
2019-04-14T04:58:19.526Z,8.67
2019-04-14T05:00:00.502Z,8.78
2019-04-14T05:01:38.732Z,8.91
2019-04-14T05:03:18.917Z,8.66
2019-04-14T05:05:01.314Z,8.93
2019-04-14T05:07:03.564Z,8.99
2019-04-14T05:08:52.242Z,8.73
2019-04-14T05:10:34.994Z,8.68
2019-04-14T05:12:26.286Z,8.61
2019-04-14T05:14:11.495Z,8.59
2019-04-14T05:15:53.184Z,8.60
2019-04-14T05:17:38.893Z,8.71
2019-04-14T05:19:25.729Z,8.62
2019-04-14T05:46:06.051Z,8.72
2019-04-14T05:47:52.163Z,8.78
2019-04-14T05:49:44.294Z,8.78
2019-04-14T05:51:22.140Z,8.76
2019-04-14T05:53:04.351Z,9.08
2019-04-14T05:54:51.974Z,9.07
2019-04-14T05:56:45.268Z,9.06
2019-04-14T05:58:34.376Z,8.90
2019-04-14T06:00:14.584Z,9.10
2019-04-14T06:01:55.532Z,8.93
2019-04-14T06:03:36.460Z,8.90
2019-04-14T06:05:17.239Z,8.99
2019-04-14T06:06:59.943Z,9.13
2019-04-14T06:08:44.300Z,9.39
2019-04-14T06:10:34.373Z,9.32
2019-04-14T06:12:17.656Z,9.07
2019-04-14T06:14:00.777Z,9.03
2019-04-14T06:15:40.098Z,9.07
2019-04-14T06:17:20.707Z,9.22
2019-04-14T06:19:00.141Z,9.10
2019-04-14T06:20:40.000Z,9.26
2019-04-14T06:22:21.839Z,9.30
2019-04-14T06:24:00.360Z,9.13
2019-04-14T06:25:40.021Z,8.91
2019-04-14T06:27:19.788Z,9.08
2019-04-14T06:29:00.216Z,9.32
2019-04-14T06:30:41.255Z,9.12
2019-04-14T06:32:22.201Z,9.46
2019-04-14T06:34:03.500Z,9.46
2019-04-14T06:35:44.404Z,9.12
2019-04-14T06:37:23.607Z,9.07
2019-04-14T06:39:22.683Z,9.05
2019-04-14T06:41:03.428Z,9.15
2019-04-14T06:42:42.048Z,9.24
2019-04-14T06:44:24.894Z,9.46
2019-04-14T06:46:04.647Z,9.42
2019-04-14T06:47:45.491Z,9.43
2019-04-14T06:49:23.795Z,9.43
2019-04-14T06:51:02.663Z,9.38
2019-04-14T06:52:42.488Z,9.56
2019-04-14T06:54:21.081Z,9.54
2019-04-14T06:55:58.967Z,9.57
2019-04-14T06:57:38.931Z,9.65
2019-04-14T06:59:22.422Z,9.86
2019-04-14T07:01:03.533Z,9.73
2019-04-14T07:02:41.773Z,9.93
2019-04-14T07:04:20.182Z,10.00
2019-04-14T07:06:00.330Z,9.90
2019-04-14T07:07:40.039Z,9.91
2019-04-14T07:09:19.261Z,9.77
2019-04-14T07:11:00.668Z,10.05
2019-04-14T07:12:42.907Z,10.29
2019-04-14T07:14:22.214Z,10.16
2019-04-14T07:16:00.543Z,10.12
2019-04-14T07:17:39.932Z,10.10
2019-04-14T07:19:19.343Z,9.88
2019-04-14T07:20:57.579Z,10.10
2019-04-14T07:22:36.475Z,10.33
2019-04-14T07:24:14.214Z,10.64
2019-04-14T07:25:53.048Z,10.54
2019-04-14T07:27:31.889Z,10.47
2019-04-14T07:29:14.793Z,10.35
2019-04-14T07:30:56.337Z,10.62
2019-04-14T07:32:57.101Z,10.47
2019-04-14T07:34:49.599Z,10.22
2019-04-14T07:36:52.208Z,10.02
2019-04-14T07:38:38.775Z,10.36
2019-04-14T07:40:37.025Z,10.48
2019-04-14T07:42:23.762Z,10.41
2019-04-14T07:44:21.479Z,10.51
2019-04-14T07:46:01.583Z,10.42
2019-04-14T07:47:46.776Z,10.48
2019-04-14T07:51:46.713Z,10.61
2019-04-14T07:53:42.287Z,10.69
2019-04-14T07:55:29.075Z,10.69
2019-04-14T07:57:10.883Z,10.57
2019-04-14T07:59:09.195Z,10.55
2019-04-14T08:00:51.241Z,10.13
2019-04-14T08:02:41.799Z,10.34
2019-04-14T08:04:22.396Z,10.60
2019-04-14T08:06:02.509Z,10.52
2019-04-14T08:07:43.868Z,10.64
2019-04-14T08:09:21.557Z,10.78
2019-04-14T08:11:01.557Z,10.64
2019-04-14T08:12:44.640Z,10.63
2019-04-14T08:14:24.280Z,10.74
2019-04-14T08:16:04.289Z,11.01
2019-04-14T08:17:46.919Z,10.89
2019-04-14T08:19:24.780Z,10.63
2019-04-14T08:21:05.118Z,10.53
2019-04-14T08:22:44.954Z,10.29
2019-04-14T08:24:26.786Z,10.36
2019-04-14T08:26:06.253Z,10.23
2019-04-14T08:27:46.481Z,10.50
2019-04-14T08:29:25.468Z,10.27
2019-04-14T08:31:05.885Z,10.50
2019-04-14T08:32:44.390Z,10.52
2019-04-14T08:34:25.159Z,10.56
2019-04-14T08:36:04.669Z,10.52
2019-04-14T08:37:49.188Z,10.33
2019-04-14T08:39:28.795Z,10.17
2019-04-14T08:41:12.492Z,10.14
2019-04-14T08:42:58.178Z,10.16
2019-04-14T08:44:49.436Z,9.96
2019-04-14T08:46:50.289Z,10.41
2019-04-14T08:48:36.997Z,10.27
2019-04-14T08:50:25.839Z,10.39
2019-04-14T08:52:11.869Z,10.36
2019-04-14T08:53:52.894Z,10.68
2019-04-14T08:55:56.410Z,10.30
2019-04-14T08:57:42.644Z,10.41
2019-04-14T08:59:41.992Z,10.35
2019-04-14T09:01:24.097Z,10.57
2019-04-14T09:03:29.648Z,10.35
2019-04-14T09:05:13.175Z,10.30
2019-04-14T09:06:58.159Z,10.26
2019-04-14T09:08:41.079Z,10.42
2019-04-14T09:10:24.469Z,10.22
2019-04-14T09:12:14.782Z,10.22
2019-04-14T09:13:48.789Z,10.35
2019-04-14T09:15:33.207Z,10.07
2019-04-14T09:17:13.694Z,10.18
2019-04-14T09:18:53.757Z,10.27
2019-04-14T09:20:33.307Z,10.07
2019-04-14T09:22:16.207Z,10.46
2019-04-14T09:23:56.742Z,10.57
2019-04-14T09:25:41.125Z,10.72
2019-04-14T09:27:19.455Z,10.75
2019-04-14T09:28:57.762Z,11.04
2019-04-14T09:30:38.145Z,11.12
2019-04-14T09:32:18.387Z,11.19
2019-04-14T09:33:57.781Z,11.04
2019-04-14T09:35:37.260Z,10.97
2019-04-14T09:37:15.525Z,10.70
2019-04-14T09:38:58.891Z,10.62
2019-04-14T09:40:37.789Z,10.85
2019-04-14T09:42:17.411Z,10.98
2019-04-14T09:43:58.570Z,10.95
2019-04-14T09:45:39.654Z,11.07
2019-04-14T09:47:17.499Z,10.98
2019-04-14T09:48:57.315Z,11.09
2019-04-14T09:50:36.036Z,11.00
2019-04-14T09:52:13.690Z,11.40
2019-04-14T09:53:58.399Z,11.56
2019-04-14T09:55:41.081Z,11.28
2019-04-14T09:57:24.080Z,10.98
2019-04-14T09:59:06.491Z,10.90
2019-04-14T10:02:50.832Z,10.75
2019-04-14T10:04:48.686Z,10.64
2019-04-14T10:06:26.395Z,10.62
2019-04-14T10:08:06.374Z,11.00
2019-04-14T10:09:44.808Z,10.88
2019-04-14T10:11:22.337Z,11.08
2019-04-14T10:12:59.878Z,11.16
2019-04-14T10:14:39.028Z,11.20
2019-04-14T10:16:18.736Z,11.24
2019-04-14T10:17:57.489Z,11.28
2019-04-14T10:19:35.396Z,11.30
2019-04-14T10:21:17.545Z,11.44
2019-04-14T10:22:54.949Z,11.58
2019-04-14T10:24:33.415Z,11.51
2019-04-14T10:26:11.373Z,11.48
2019-04-14T10:27:49.594Z,11.66
2019-04-14T10:29:27.713Z,11.61
2019-04-14T10:31:06.597Z,11.76
2019-04-14T10:32:44.481Z,11.64
2019-04-14T10:34:22.937Z,11.46
2019-04-14T10:36:00.481Z,11.59
2019-04-14T10:38:30.873Z,11.37
2019-04-14T10:39:45.095Z,11.33
2019-04-14T10:41:23.532Z,11.16
2019-04-14T10:44:47.602Z,11.49
2019-04-14T10:45:10.932Z,11.30
2019-04-14T10:46:33.761Z,11.50
2019-04-14T10:48:18.200Z,11.56
2019-04-14T10:49:57.663Z,11.38
2019-04-14T10:51:39.638Z,11.46
2019-04-14T10:53:22.015Z,11.30
2019-04-14T10:55:19.067Z,11.12
2019-04-14T10:57:05.112Z,11.24
2019-04-14T10:58:43.802Z,11.06
2019-04-14T11:00:37.132Z,11.02
2019-04-14T11:02:37.302Z,11.12
2019-04-14T11:04:17.905Z,11.17
2019-04-14T11:06:11.550Z,11.29
2019-04-14T11:07:59.728Z,11.19
2019-04-14T11:09:37.211Z,11.23
2019-04-14T11:11:14.931Z,11.09
2019-04-14T11:12:52.257Z,11.17
2019-04-14T11:14:30.641Z,11.16
2019-04-14T11:16:09.387Z,11.31
2019-04-14T11:17:47.308Z,11.39
2019-04-14T11:19:24.998Z,11.23
2019-04-14T11:21:02.315Z,11.36
2019-04-14T11:22:40.298Z,11.42
2019-04-14T11:24:18.205Z,11.52
2019-04-14T11:25:55.817Z,11.80
2019-04-14T11:27:34.124Z,11.73
2019-04-14T11:29:11.980Z,11.85
2019-04-14T11:30:49.768Z,11.65
2019-04-14T11:32:28.915Z,11.79
2019-04-14T11:34:06.486Z,11.97
2019-04-14T11:35:46.904Z,12.20
2019-04-14T11:39:24.935Z,11.55
2019-04-14T11:41:05.951Z,11.43
2019-04-14T11:42:52.304Z,11.30
2019-04-14T11:44:22.738Z,11.81
2019-04-14T11:46:03.907Z,11.76
2019-04-14T11:47:43.819Z,11.98
2019-04-14T11:49:25.225Z,12.02
2019-04-14T11:51:06.544Z,11.93
2019-04-14T11:52:44.548Z,12.13
2019-04-14T11:54:22.096Z,11.82
2019-04-14T11:56:00.437Z,11.54
2019-04-14T11:57:38.237Z,11.51
2019-04-14T17:48:38.695Z,8.55
2019-04-14T17:50:21.807Z,8.52
2019-04-14T17:52:17.742Z,8.48
2019-04-14T17:54:03.174Z,8.41
2019-04-14T17:55:51.794Z,8.60
2019-04-14T17:57:39.064Z,8.48
2019-04-14T17:59:19.504Z,8.33
2019-04-14T18:01:15.656Z,8.33
2019-04-14T18:03:03.630Z,8.32
2019-04-14T18:05:01.731Z,8.25
2019-04-14T18:06:46.739Z,8.20
2019-04-14T18:08:41.749Z,8.23
2019-04-14T18:10:29.555Z,8.23
2019-04-14T18:12:14.676Z,8.16
2019-04-14T18:14:16.295Z,8.09
2019-04-14T18:15:58.779Z,8.10
2019-04-14T18:17:43.386Z,8.21
2019-04-14T18:19:30.562Z,8.29
2019-04-14T18:21:10.968Z,8.40
2019-04-14T18:22:50.346Z,8.21
2019-04-14T18:24:28.157Z,8.18
2019-04-14T18:26:07.473Z,8.14
2019-04-14T18:28:02.433Z,8.01
2019-04-14T18:29:42.008Z,8.08
2019-04-14T18:31:22.904Z,7.92
2019-04-14T18:33:03.749Z,8.00
2019-04-14T18:34:51.222Z,7.97
2019-04-14T18:36:50.429Z,7.93
2019-04-14T18:38:30.698Z,7.98
2019-04-14T18:40:12.588Z,7.80
2019-04-14T18:42:15.694Z,7.85
2019-04-14T18:44:14.464Z,7.81
2019-04-14T18:45:56.462Z,7.70
2019-04-14T18:47:56.358Z,7.66
2019-04-14T18:49:52.704Z,7.74
2019-04-14T18:51:39.901Z,7.85
2019-04-14T18:53:34.211Z,7.72
2019-04-14T18:55:33.070Z,7.66
2019-04-14T18:57:17.794Z,7.78
2019-04-14T18:59:16.591Z,7.74
2019-04-14T19:01:05.200Z,7.64
2019-04-14T19:02:45.380Z,7.66
2019-04-14T19:04:25.158Z,7.62
2019-04-14T19:06:11.384Z,7.63
2019-04-14T19:07:52.910Z,7.70
2019-04-14T19:09:33.117Z,7.56
2019-04-14T19:11:16.762Z,7.52
2019-04-14T19:13:16.877Z,7.49
2019-04-14T19:14:59.793Z,7.52
2019-04-14T19:16:50.741Z,7.58
2019-04-14T19:18:49.871Z,7.61
2019-04-14T19:20:51.824Z,7.60
2019-04-14T19:25:06.742Z,7.56
2019-04-14T19:25:23.882Z,7.55
2019-04-14T19:27:03.477Z,7.49
2019-04-14T19:28:42.845Z,7.38
2019-04-14T19:30:24.402Z,7.54
2019-04-14T19:32:03.015Z,7.51
2019-04-14T19:33:43.317Z,7.59
2019-04-14T19:35:26.809Z,7.50
2019-04-14T19:37:07.311Z,7.50
2019-04-14T19:38:46.230Z,7.45
2019-04-14T19:40:24.652Z,7.42
2019-04-14T19:42:05.450Z,7.47
2019-04-14T19:43:47.196Z,7.40
2019-04-14T19:45:29.434Z,7.44
2019-04-14T19:47:08.734Z,7.47
2019-04-14T19:48:46.655Z,7.58
2019-04-14T19:50:25.992Z,7.52
2019-04-14T19:52:04.225Z,7.46
2019-04-14T19:53:45.651Z,7.49
2019-04-14T19:55:26.950Z,7.36
2019-04-14T19:57:06.296Z,7.38
2019-04-14T19:58:46.474Z,7.31
2019-04-14T20:00:27.892Z,7.32
2019-04-14T20:02:06.645Z,7.29
2019-04-14T20:03:46.876Z,7.26
2019-04-14T20:05:26.075Z,7.32
2019-04-14T20:07:05.909Z,7.44
2019-04-14T20:08:45.100Z,7.36
2019-04-14T20:10:25.486Z,7.28
2019-04-14T20:12:05.924Z,7.25
2019-04-14T20:13:53.444Z,7.57
2019-04-14T20:15:37.106Z,7.43
2019-04-14T20:17:29.487Z,7.27
2019-04-14T20:19:11.056Z,7.35
2019-04-14T20:21:16.466Z,7.31
2019-04-14T20:23:22.512Z,7.20
2019-04-14T20:25:09.910Z,7.32
2019-04-14T20:27:12.681Z,7.28
2019-04-14T20:28:57.461Z,7.17
2019-04-14T20:30:45.501Z,7.06
2019-04-14T20:32:32.459Z,7.21
2019-04-14T20:34:12.155Z,7.05
2019-04-14T20:35:52.223Z,7.21
2019-04-14T20:37:32.858Z,7.33
2019-04-14T20:39:16.652Z,7.29
2019-04-14T20:40:55.344Z,7.39
2019-04-14T20:42:36.002Z,7.20
2019-04-14T20:44:15.572Z,7.19
2019-04-14T20:45:55.031Z,7.09
2019-04-14T20:47:33.956Z,7.17
2019-04-14T20:49:12.078Z,7.05
2019-04-14T20:50:53.381Z,7.19
2019-04-14T20:52:33.131Z,7.16
2019-04-14T20:54:13.362Z,6.99
2019-04-14T20:55:52.517Z,7.03
2019-04-14T20:57:32.558Z,7.08
2019-04-14T20:59:12.429Z,7.00
2019-04-14T21:00:52.541Z,6.97
2019-04-14T21:02:33.650Z,7.07
2019-04-14T21:04:31.311Z,7.23
2019-04-14T21:06:15.135Z,6.97
2019-04-14T21:07:55.109Z,7.05
2019-04-14T21:09:38.593Z,6.95
2019-04-14T21:11:25.866Z,6.76
2019-04-14T21:13:08.579Z,6.81
2019-04-14T21:15:10.422Z,6.71
2019-04-14T21:16:53.953Z,6.75
2019-04-14T21:18:39.148Z,6.63
2019-04-14T21:20:24.867Z,6.70
2019-04-14T21:22:25.913Z,6.83
2019-04-14T21:24:07.267Z,6.60
2019-04-14T21:26:00.382Z,6.53
2019-04-14T21:27:42.224Z,6.54
2019-04-14T21:29:22.468Z,6.47
2019-04-14T21:31:06.936Z,6.69
2019-04-14T21:32:54.805Z,6.63
2019-04-14T21:34:38.917Z,6.52
2019-04-14T21:36:23.166Z,6.61
2019-04-14T21:38:04.024Z,6.50
2019-04-14T21:39:55.373Z,6.44
2019-04-14T21:41:36.717Z,6.37
2019-04-14T21:43:19.504Z,6.41
2019-04-14T21:44:59.870Z,6.36
2019-04-14T21:46:37.446Z,6.42
2019-04-14T21:48:18.581Z,6.30
2019-04-14T21:50:08.852Z,6.25
2019-04-14T21:51:57.139Z,6.42
2019-04-14T21:53:39.255Z,6.31
2019-04-14T21:55:22.006Z,6.37
2019-04-14T21:57:15.313Z,6.31
2019-04-14T21:59:03.845Z,6.22
2019-04-14T22:01:01.955Z,6.25
2019-04-14T22:02:59.702Z,6.23
2019-04-14T22:04:41.221Z,6.19
2019-04-14T22:06:23.897Z,6.17
2019-04-14T22:08:05.011Z,6.26
2019-04-14T22:09:45.269Z,6.16
2019-04-14T22:11:29.838Z,6.29
2019-04-14T22:13:09.354Z,6.22
2019-04-14T22:14:47.902Z,6.12
2019-04-14T22:16:28.846Z,6.06
2019-04-14T22:18:13.036Z,6.03
2019-04-14T22:19:52.704Z,6.05
2019-04-14T22:21:31.204Z,6.14
2019-04-14T22:23:13.395Z,6.07
2019-04-14T22:24:52.822Z,6.01
2019-04-14T22:26:33.010Z,5.98
2019-04-14T22:28:15.377Z,6.16
2019-04-14T22:29:56.499Z,6.12
2019-04-14T22:31:36.168Z,6.07
2019-04-14T22:33:19.370Z,6.08
2019-04-14T22:34:58.833Z,6.17
2019-04-14T22:36:39.120Z,6.18
2019-04-14T22:38:18.386Z,6.04
2019-04-14T22:39:58.249Z,5.98
2019-04-14T22:41:37.562Z,5.99
2019-04-14T22:43:18.655Z,6.06
2019-04-14T22:44:57.953Z,6.05
2019-04-14T22:46:37.246Z,6.03
2019-04-14T22:48:19.402Z,6.01
2019-04-14T22:49:59.398Z,6.00
2019-04-14T22:51:39.248Z,6.00
2019-04-14T22:53:19.293Z,5.99
2019-04-14T22:54:59.189Z,6.01
2019-04-14T22:56:39.715Z,5.96
2019-04-14T22:58:20.192Z,6.01
2019-04-14T22:59:59.545Z,5.98
2019-04-14T23:01:40.737Z,6.08
2019-04-14T23:03:21.716Z,6.08
2019-04-14T23:05:09.420Z,5.93
2019-04-14T23:07:07.612Z,6.05
2019-04-14T23:08:52.533Z,6.00
2019-04-14T23:10:33.900Z,5.89
2019-04-14T23:12:18.763Z,5.88
2019-04-14T23:14:00.638Z,5.84
2019-04-14T23:15:40.824Z,5.86
2019-04-14T23:17:29.595Z,5.82
2019-04-14T23:19:11.081Z,5.92
2019-04-14T23:21:08.348Z,5.84
2019-04-14T23:23:01.584Z,5.82
2019-04-14T23:24:40.871Z,5.83
2019-04-14T23:26:21.861Z,5.76
2019-04-14T23:28:01.345Z,5.84
2019-04-14T23:29:41.486Z,5.80
2019-04-14T23:31:21.438Z,5.77
2019-04-14T23:32:59.833Z,5.72
2019-04-14T23:34:39.710Z,5.74
2019-04-14T23:36:19.029Z,5.72
2019-04-14T23:37:59.268Z,5.65
2019-04-14T23:39:39.385Z,5.61
2019-04-14T23:41:19.658Z,5.55
2019-04-14T23:42:59.007Z,5.59
2019-04-14T23:44:38.731Z,5.58
2019-04-14T23:46:18.016Z,5.58
2019-04-14T23:47:57.763Z,5.54
2019-04-14T23:49:35.969Z,5.50
2019-04-14T23:51:17.155Z,5.52
2019-04-14T23:52:58.089Z,5.65
2019-04-14T23:54:39.828Z,5.54
2019-04-14T23:56:19.167Z,5.56
2019-04-14T23:57:59.722Z,5.52
2019-04-14T23:59:38.400Z,5.47
